MMZO/ZLO METAR and TAF weather

Enter ICAO airport designator
Station Type Date Time Source
MMZO METAR 2020/07/06 01:40 UTC NOAA

MMZO 060140Z 24010KT 10SM FEW020 SCT250 29/25 A2983 RMK 8/106 CBS AL N


Station Type Date Time Source
MMZO Decoded METAR 2020/07/06 01:40 UTC NOAA

Manzanillo International , Mexico (MMZO) 19-09N 104-34W
Jul 05, 2020 - 09:40 PM EDT / 2020.07.06 0140 UTC
Wind: from the WSW (240 degrees) at 12 MPH (10 KT):0
Visibility: 10 mile(s):0
Sky conditions: partly cloudy
Weather: Cumulonimbus clouds observed
Temperature: 84 F (29 C)
Dew Point: 77 F (25 C)
Relative Humidity: 79%
Pressure (altimeter): 29.83 in. Hg (1010 hPa)
ob: MMZO 060140Z 24010KT 10SM FEW020 SCT250 29/25 A2983 RMK 8/106 CBS AL N
cycle: 1

Station Type Date Time Source
MMZO TAF 2020/07/06 06:34 UTC NOAA

TAF MMZO 060429Z 0606/0706 03005KT P6SM SCT020 SCT250
FM061600 23010KT P6SM SCT020 SCT250
FM070200 03005KT P6SM SCT020 BKN250

Example: see airport list